Time,TemperatureF,DewpointF,PressureIn,WindDirection,WindDirectionDegrees,WindSpeedMPH,WindSpeedGustMPH,Humidity,HourlyPrecipIn,Conditions,Clouds,dailyrainin,SoftwareType,DateUTC
2013-09-18 00:00:00,49.7,43.1,30.24,SSE,151,2.0,3.0,78,0.00,,,0.00,Wunderground v.1.15,2013-09-18 04:00:00,
2013-09-18 00:05:00,49.5,43.3,30.24,South,176,3.0,3.0,79,0.00,,,0.00,Wunderground v.1.15,2013-09-18 04:05:00,
2013-09-18 00:10:00,49.0,42.8,30.24,SSE,167,3.0,3.0,79,0.00,,,0.00,Wunderground v.1.15,2013-09-18 04:10:00,
2013-09-18 00:15:00,48.6,42.7,30.24,South,178,3.0,3.0,80,0.00,,,0.00,Wunderground v.1.15,2013-09-18 04:15:00,
2013-09-18 00:20:00,48.2,42.6,30.24,SSE,159,3.0,3.0,81,0.00,,,0.00,Wunderground v.1.15,2013-09-18 04:20:00,
2013-09-18 00:30:00,47.7,42.8,30.24,South,171,3.0,3.0,83,0.00,,,0.00,Wunderground v.1.15,2013-09-18 04:30:00,
2013-09-18 00:40:00,47.5,42.6,30.24,South,183,3.0,4.0,83,0.00,,,0.00,Wunderground v.1.15,2013-09-18 04:40:00,
2013-09-18 00:50:00,47.7,42.5,30.24,South,177,3.0,3.0,82,0.00,,,0.00,Wunderground v.1.15,2013-09-18 04:50:00,
2013-09-18 00:55:00,47.8,42.6,30.24,South,184,3.0,4.0,82,0.00,,,0.00,Wunderground v.1.15,2013-09-18 04:55:00,
2013-09-18 01:00:00,47.8,42.3,30.24,South,183,3.0,4.0,81,0.00,,,0.00,Wunderground v.1.15,2013-09-18 05:00:00,
2013-09-18 01:10:00,48.3,42.1,30.24,South,171,4.0,4.0,79,0.00,,,0.00,Wunderground v.1.15,2013-09-18 05:10:00,
2013-09-18 01:20:00,48.8,41.9,30.24,South,177,3.0,4.0,77,0.00,,,0.00,Wunderground v.1.15,2013-09-18 05:20:00,
2013-09-18 01:30:00,48.9,42.3,30.24,South,178,3.0,3.0,78,0.00,,,0.00,Wunderground v.1.15,2013-09-18 05:30:00,
2013-09-18 01:40:00,48.5,42.6,30.24,South,181,3.0,4.0,80,0.00,,,0.00,Wunderground v.1.15,2013-09-18 05:40:00,
2013-09-18 01:50:00,48.3,42.4,30.23,South,174,3.0,3.0,80,0.00,,,0.00,Wunderground v.1.15,2013-09-18 05:50:00,
2013-09-18 02:00:00,48.3,42.1,30.23,South,172,3.0,4.0,79,0.00,,,0.00,Wunderground v.1.15,2013-09-18 06:00:00,
2013-09-18 02:10:00,48.2,42.3,30.23,South,174,4.0,4.0,80,0.00,,,0.00,Wunderground v.1.15,2013-09-18 06:10:00,
2013-09-18 02:20:00,47.7,42.2,30.23,South,177,3.0,3.0,81,0.00,,,0.00,Wunderground v.1.15,2013-09-18 06:20:00,
2013-09-18 02:30:00,47.3,42.1,30.23,SSE,165,3.0,3.0,82,0.00,,,0.00,Wunderground v.1.15,2013-09-18 06:30:00,
2013-09-18 02:40:00,47.4,42.2,30.23,SSE,168,4.0,4.0,82,0.00,,,0.00,Wunderground v.1.15,2013-09-18 06:40:00,
2013-09-18 02:50:00,48.1,42.2,30.22,South,181,3.0,3.0,80,0.00,,,0.00,Wunderground v.1.15,2013-09-18 06:50:00,
2013-09-18 03:00:00,48.8,42.6,30.22,South,186,3.0,3.0,79,0.00,,,0.00,Wunderground v.1.15,2013-09-18 07:00:00,
2013-09-18 03:10:00,49.2,42.6,30.22,South,179,3.0,4.0,78,0.00,,,0.00,Wunderground v.1.15,2013-09-18 07:10:00,
2013-09-18 03:20:00,49.1,42.5,30.22,South,190,3.0,3.0,78,0.00,,,0.00,Wunderground v.1.15,2013-09-18 07:20:00,
2013-09-18 03:30:00,49.3,42.4,30.22,South,172,3.0,3.0,77,0.00,,,0.00,Wunderground v.1.15,2013-09-18 07:30:00,
2013-09-18 03:40:00,49.1,42.9,30.22,South,170,3.0,3.0,79,0.00,,,0.00,Wunderground v.1.15,2013-09-18 07:40:00,
2013-09-18 03:50:00,48.8,41.9,30.22,WSW,250,2.0,2.0,77,0.00,,,0.00,Wunderground v.1.15,2013-09-18 07:50:00,
2013-09-18 04:00:00,49.7,41.7,30.22,SSW,204,2.0,2.0,74,0.00,,,0.00,Wunderground v.1.15,2013-09-18 08:00:00,
2013-09-18 04:10:00,50.8,41.7,30.22,SW,221,2.0,2.0,71,0.00,,,0.00,Wunderground v.1.15,2013-09-18 08:10:00,
2013-09-18 04:20:00,51.2,42.5,30.22,South,169,2.0,3.0,72,0.00,,,0.00,Wunderground v.1.15,2013-09-18 08:20:00,
2013-09-18 04:30:00,50.8,42.1,30.21,South,172,2.0,2.0,72,0.00,,,0.00,Wunderground v.1.15,2013-09-18 08:30:00,
2013-09-18 04:40:00,50.5,42.2,30.21,South,174,2.0,2.0,73,0.00,,,0.00,Wunderground v.1.15,2013-09-18 08:40:00,
2013-09-18 04:50:00,50.3,41.6,30.21,SSW,192,2.0,2.0,72,0.00,,,0.00,Wunderground v.1.15,2013-09-18 08:50:00,
2013-09-18 05:00:00,50.6,41.5,30.21,SSW,209,2.0,2.0,71,0.00,,,0.00,Wunderground v.1.15,2013-09-18 09:00:00,
2013-09-18 05:10:00,51.0,41.6,30.21,SW,215,2.0,2.0,70,0.00,,,0.00,Wunderground v.1.15,2013-09-18 09:10:00,
2013-09-18 05:20:00,51.1,41.7,30.21,South,182,3.0,3.0,70,0.00,,,0.00,Wunderground v.1.15,2013-09-18 09:20:00,
2013-09-18 05:30:00,51.6,42.5,30.21,SSW,199,2.0,2.0,71,0.00,,,0.00,Wunderground v.1.15,2013-09-18 09:30:00,
2013-09-18 05:40:00,51.6,42.5,30.21,SSW,197,2.0,3.0,71,0.00,,,0.00,Wunderground v.1.15,2013-09-18 09:40:00,
2013-09-18 05:50:00,51.3,42.9,30.21,SSW,203,2.0,2.0,73,0.00,,,0.00,Wunderground v.1.15,2013-09-18 09:50:00,
2013-09-18 06:00:00,51.0,43.4,30.22,South,186,2.0,3.0,75,0.00,,,0.00,Wunderground v.1.15,2013-09-18 10:00:00,
2013-09-18 06:10:00,50.8,43.5,30.22,South,190,2.0,3.0,76,0.00,,,0.00,Wunderground v.1.15,2013-09-18 10:10:00,
2013-09-18 06:20:00,50.5,43.6,30.22,SSW,192,2.0,2.0,77,0.00,,,0.00,Wunderground v.1.15,2013-09-18 10:20:00,
2013-09-18 06:30:00,50.6,43.7,30.21,SSW,206,2.0,2.0,77,0.00,,,0.00,Wunderground v.1.15,2013-09-18 10:30:00,
2013-09-18 06:40:00,51.0,44.7,30.21,WSW,238,2.0,2.0,79,0.00,,,0.00,Wunderground v.1.15,2013-09-18 10:40:00,
2013-09-18 06:50:00,51.6,45.0,30.21,South,191,2.0,3.0,78,0.00,,,0.00,Wunderground v.1.15,2013-09-18 10:50:00,
2013-09-18 07:00:00,51.5,44.5,30.22,SSW,210,2.0,2.0,77,0.00,,,0.00,Wunderground v.1.15,2013-09-18 11:00:00,
2013-09-18 07:10:00,51.7,45.7,30.22,WSW,245,2.0,2.0,80,0.00,,,0.00,Wunderground v.1.15,2013-09-18 11:10:00,
2013-09-18 07:20:00,52.2,45.9,30.22,SSE,151,2.0,2.0,79,0.00,,,0.00,Wunderground v.1.15,2013-09-18 11:20:00,
2013-09-18 07:30:00,51.8,45.5,30.22,SW,224,2.0,2.0,79,0.00,,,0.00,Wunderground v.1.15,2013-09-18 11:30:00,
2013-09-18 07:40:00,51.9,46.6,30.22,NNW,341,1.0,3.0,82,0.00,,,0.00,Wunderground v.1.15,2013-09-18 11:40:00,
2013-09-18 07:50:00,52.7,47.7,30.22,WNW,283,1.0,2.0,83,0.00,,,0.00,Wunderground v.1.15,2013-09-18 11:50:00,
2013-09-18 08:00:00,54.2,48.5,30.22,WNW,293,2.0,4.0,81,0.00,,,0.00,Wunderground v.1.15,2013-09-18 12:00:00,
2013-09-18 08:10:00,55.5,48.4,30.22,West,270,2.0,2.0,77,0.00,,,0.00,Wunderground v.1.15,2013-09-18 12:10:00,
2013-09-18 08:20:00,56.2,48.7,30.22,North,3,2.0,2.0,76,0.00,,,0.00,Wunderground v.1.15,2013-09-18 12:20:00,
2013-09-18 08:30:00,57.1,48.2,30.22,North,8,2.0,3.0,72,0.00,,,0.00,Wunderground v.1.15,2013-09-18 12:30:00,
2013-09-18 08:40:00,58.0,49.0,30.22,NW,323,2.0,2.0,72,0.00,,,0.00,Wunderground v.1.15,2013-09-18 12:40:00,
2013-09-18 08:50:00,58.4,49.4,30.22,NNW,334,2.0,2.0,72,0.00,,,0.00,Wunderground v.1.15,2013-09-18 12:50:00,
2013-09-18 09:00:00,58.7,49.7,30.22,NNE,12,2.0,3.0,72,0.00,,,0.00,Wunderground v.1.15,2013-09-18 13:00:00,
2013-09-18 09:10:00,58.9,51.0,30.22,WNW,292,3.0,3.0,75,0.00,,,0.00,Wunderground v.1.15,2013-09-18 13:10:00,
2013-09-18 09:20:00,58.8,50.9,30.22,NNW,329,3.0,3.0,75,0.00,,,0.00,Wunderground v.1.15,2013-09-18 13:20:00,
2013-09-18 09:30:00,58.9,51.0,30.22,NNW,347,3.0,5.0,75,0.00,,,0.00,Wunderground v.1.15,2013-09-18 13:30:00,
2013-09-18 09:40:00,58.9,49.9,30.22,NNW,331,3.0,5.0,72,0.00,,,0.00,Wunderground v.1.15,2013-09-18 13:40:00,
2013-09-18 09:50:00,59.0,48.8,30.22,NNW,344,3.0,4.0,69,0.00,,,0.00,Wunderground v.1.15,2013-09-18 13:50:00,
2013-09-18 10:00:00,59.2,49.8,30.22,NW,318,3.0,3.0,71,0.00,,,0.00,Wunderground v.1.15,2013-09-18 14:00:00,
2013-09-18 10:10:00,59.4,48.8,30.22,NW,323,3.0,3.0,68,0.00,,,0.00,Wunderground v.1.15,2013-09-18 14:10:00,
2013-09-18 10:20:00,59.6,49.0,30.22,NNW,346,4.0,5.0,68,0.00,,,0.00,Wunderground v.1.15,2013-09-18 14:20:00,
2013-09-18 10:30:00,59.8,49.2,30.22,NNW,335,4.0,4.0,68,0.00,,,0.00,Wunderground v.1.15,2013-09-18 14:30:00,
2013-09-18 10:40:00,60.0,49.4,30.22,NNE,12,3.0,5.0,68,0.00,,,0.00,Wunderground v.1.15,2013-09-18 14:40:00,
2013-09-18 10:50:00,60.2,49.2,30.21,North,1,3.0,3.0,67,0.00,,,0.00,Wunderground v.1.15,2013-09-18 14:50:00,
2013-09-18 11:00:00,60.4,49.8,30.21,NNW,343,3.0,3.0,68,0.00,,,0.00,Wunderground v.1.15,2013-09-18 15:00:00,
2013-09-18 11:10:00,60.5,50.3,30.21,NNE,29,4.0,4.0,69,0.00,,,0.00,Wunderground v.1.15,2013-09-18 15:10:00,
2013-09-18 11:20:00,60.5,49.9,30.21,NNE,16,3.0,5.0,68,0.00,,,0.00,Wunderground v.1.15,2013-09-18 15:20:00,
2013-09-18 11:30:00,61.0,50.0,30.21,West,272,3.0,4.0,67,0.00,,,0.00,Wunderground v.1.15,2013-09-18 15:30:00,
2013-09-18 11:40:00,61.0,49.6,30.21,NNW,337,3.0,4.0,66,0.00,,,0.00,Wunderground v.1.15,2013-09-18 15:40:00,
2013-09-18 11:50:00,61.2,49.3,30.20,North,350,3.0,3.0,65,0.00,,,0.00,Wunderground v.1.15,2013-09-18 15:50:00,
2013-09-18 12:00:00,61.6,48.0,30.19,NW,311,3.0,3.0,61,0.00,,,0.00,Wunderground v.1.15,2013-09-18 16:00:00,
2013-09-18 12:10:00,61.8,49.1,30.19,North,349,3.0,3.0,63,0.00,,,0.00,Wunderground v.1.15,2013-09-18 16:10:00,
2013-09-18 12:15:00,61.8,47.3,30.19,NW,319,2.0,3.0,59,0.00,,,0.00,Wunderground v.1.15,2013-09-18 16:15:00,
2013-09-18 12:20:00,61.8,48.6,30.19,NE,44,3.0,5.0,62,0.00,,,0.00,Wunderground v.1.15,2013-09-18 16:20:00,
2013-09-18 12:30:00,62.2,49.0,30.19,NNW,342,3.0,3.0,62,0.00,,,0.00,Wunderground v.1.15,2013-09-18 16:30:00,
2013-09-18 12:40:00,62.5,50.2,30.19,NW,326,3.0,5.0,64,0.00,,,0.00,Wunderground v.1.15,2013-09-18 16:40:00,
2013-09-18 12:50:00,62.7,49.1,30.18,WNW,301,3.0,3.0,61,0.00,,,0.00,Wunderground v.1.15,2013-09-18 16:50:00,
2013-09-18 13:00:00,62.6,47.6,30.18,NE,39,3.0,3.0,58,0.00,,,0.00,Wunderground v.1.15,2013-09-18 17:00:00,
2013-09-18 13:10:00,62.9,48.3,30.18,NNE,14,3.0,4.0,59,0.00,,,0.00,Wunderground v.1.15,2013-09-18 17:10:00,
2013-09-18 13:20:00,63.0,48.9,30.17,NNW,337,3.0,3.0,60,0.00,,,0.00,Wunderground v.1.15,2013-09-18 17:20:00,
2013-09-18 13:30:00,63.5,49.8,30.16,North,357,3.0,6.0,61,0.00,,,0.00,Wunderground v.1.15,2013-09-18 17:30:00,
2013-09-18 13:40:00,63.8,47.8,30.16,NW,308,3.0,5.0,56,0.00,,,0.00,Wunderground v.1.15,2013-09-18 17:40:00,
2013-09-18 13:50:00,63.7,47.2,30.16,NNE,12,4.0,4.0,55,0.00,,,0.00,Wunderground v.1.15,2013-09-18 17:50:00,
2013-09-18 14:00:00,63.8,46.8,30.16,NW,321,3.0,3.0,54,0.00,,,0.00,Wunderground v.1.15,2013-09-18 18:00:00,
2013-09-18 14:10:00,64.1,46.1,30.16,NNW,329,2.0,3.0,52,0.00,,,0.00,Wunderground v.1.15,2013-09-18 18:10:00,
2013-09-18 14:20:00,64.6,45.5,30.15,NNW,333,3.0,3.0,50,0.00,,,0.00,Wunderground v.1.15,2013-09-18 18:20:00,
2013-09-18 14:30:00,65.0,45.4,30.15,North,10,3.0,3.0,49,0.00,,,0.00,Wunderground v.1.15,2013-09-18 18:30:00,
2013-09-18 14:40:00,65.4,46.8,30.15,NNW,344,3.0,3.0,51,0.00,,,0.00,Wunderground v.1.15,2013-09-18 18:40:00,
2013-09-18 14:50:00,65.2,47.1,30.14,NW,318,3.0,3.0,52,0.00,,,0.00,Wunderground v.1.15,2013-09-18 18:50:00,
2013-09-18 15:00:00,65.6,46.5,30.14,NW,314,3.0,3.0,50,0.00,,,0.00,Wunderground v.1.15,2013-09-18 19:00:00,
2013-09-18 15:10:00,65.8,47.2,30.14,North,355,3.0,4.0,51,0.00,,,0.00,Wunderground v.1.15,2013-09-18 19:10:00,
2013-09-18 15:20:00,65.8,46.6,30.13,North,7,3.0,3.0,50,0.00,,,0.00,Wunderground v.1.15,2013-09-18 19:20:00,
2013-09-18 15:30:00,65.5,47.4,30.13,NNW,339,3.0,3.0,52,0.00,,,0.00,Wunderground v.1.15,2013-09-18 19:30:00,
2013-09-18 15:40:00,65.1,48.0,30.13,NNW,345,3.0,3.0,54,0.00,,,0.00,Wunderground v.1.15,2013-09-18 19:40:00,
2013-09-18 15:50:00,65.1,48.0,30.13,NW,315,3.0,3.0,54,0.00,,,0.00,Wunderground v.1.15,2013-09-18 19:50:00,
2013-09-18 16:00:00,65.3,48.2,30.12,North,360,3.0,4.0,54,0.00,,,0.00,Wunderground v.1.15,2013-09-18 20:00:00,
2013-09-18 16:10:00,65.6,48.0,30.12,NNW,343,3.0,3.0,53,0.00,,,0.00,Wunderground v.1.15,2013-09-18 20:10:00,
2013-09-18 16:20:00,65.5,47.4,30.11,North,2,2.0,2.0,52,0.00,,,0.00,Wunderground v.1.15,2013-09-18 20:20:00,
2013-09-18 16:30:00,65.6,48.5,30.11,NNE,16,2.0,5.0,54,0.00,,,0.00,Wunderground v.1.15,2013-09-18 20:30:00,
2013-09-18 16:40:00,65.9,48.3,30.11,NNW,337,2.0,3.0,53,0.00,,,0.00,Wunderground v.1.15,2013-09-18 20:40:00,
2013-09-18 16:50:00,65.9,48.8,30.11,North,351,3.0,3.0,54,0.00,,,0.00,Wunderground v.1.15,2013-09-18 20:50:00,
2013-09-18 17:00:00,65.5,49.4,30.11,NW,326,3.0,3.0,56,0.00,,,0.00,Wunderground v.1.15,2013-09-18 21:00:00,
2013-09-18 17:10:00,65.5,50.3,30.11,SW,215,2.0,3.0,58,0.00,,,0.00,Wunderground v.1.15,2013-09-18 21:10:00,
2013-09-18 17:20:00,65.8,50.1,30.11,South,189,4.0,5.0,57,0.00,,,0.00,Wunderground v.1.15,2013-09-18 21:20:00,
2013-09-18 17:30:00,65.4,50.7,30.11,South,182,6.0,6.0,59,0.00,,,0.00,Wunderground v.1.15,2013-09-18 21:30:00,
2013-09-18 17:40:00,65.0,51.2,30.11,South,183,3.0,8.0,61,0.00,,,0.00,Wunderground v.1.15,2013-09-18 21:40:00,
2013-09-18 17:50:00,64.4,50.7,30.10,SSE,166,4.0,7.0,61,0.00,,,0.00,Wunderground v.1.15,2013-09-18 21:50:00,
2013-09-18 18:00:00,63.8,50.5,30.10,East,83,4.0,4.0,62,0.00,,,0.00,Wunderground v.1.15,2013-09-18 22:00:00,
2013-09-18 18:10:00,63.2,50.8,30.10,South,176,4.0,4.0,64,0.00,,,0.00,Wunderground v.1.15,2013-09-18 22:10:00,
2013-09-18 18:20:00,62.8,50.9,30.10,SSE,154,3.0,10.0,65,0.00,,,0.00,Wunderground v.1.15,2013-09-18 22:20:00,
2013-09-18 18:30:00,62.3,50.4,30.10,SSW,192,5.0,5.0,65,0.00,,,0.00,Wunderground v.1.15,2013-09-18 22:30:00,
2013-09-18 18:40:00,61.7,50.6,30.10,SSW,197,3.0,5.0,67,0.00,,,0.00,Wunderground v.1.15,2013-09-18 22:40:00,
2013-09-18 18:50:00,61.0,50.4,30.10,SSE,167,4.0,4.0,68,0.00,,,0.00,Wunderground v.1.15,2013-09-18 22:50:00,
2013-09-18 19:00:00,60.3,50.5,30.10,South,171,4.0,4.0,70,0.00,,,0.00,Wunderground v.1.15,2013-09-18 23:00:00,
2013-09-18 19:10:00,59.7,50.3,30.10,South,186,4.0,4.0,71,0.00,,,0.00,Wunderground v.1.15,2013-09-18 23:10:00,
2013-09-18 19:20:00,59.1,50.1,30.10,SSE,160,3.0,3.0,72,0.00,,,0.00,Wunderground v.1.15,2013-09-18 23:20:00,
2013-09-18 19:30:00,58.4,50.1,30.09,South,178,4.0,4.0,74,0.00,,,0.00,Wunderground v.1.15,2013-09-18 23:30:00,
2013-09-18 19:40:00,57.8,49.9,30.09,SSW,195,4.0,4.0,75,0.00,,,0.00,Wunderground v.1.15,2013-09-18 23:40:00,
2013-09-18 19:50:00,57.2,49.7,30.09,South,174,4.0,4.0,76,0.00,,,0.00,Wunderground v.1.15,2013-09-18 23:50:00,
2013-09-18 20:00:00,56.7,49.6,30.09,SSW,196,4.0,5.0,77,0.00,,,0.00,Wunderground v.1.15,2013-09-19 00:00:00,
2013-09-18 20:10:00,56.3,49.5,30.09,South,172,4.0,5.0,78,0.00,,,0.00,Wunderground v.1.15,2013-09-19 00:10:00,
2013-09-18 20:25:00,55.8,49.0,30.09,South,191,4.0,5.0,78,0.00,,,0.00,Wunderground v.1.15,2013-09-19 00:25:00,
2013-09-18 20:30:00,55.6,48.8,30.10,SE,141,4.0,5.0,78,0.00,,,0.00,Wunderground v.1.15,2013-09-19 00:30:00,
2013-09-18 20:40:00,55.3,48.9,30.10,South,178,4.0,4.0,79,0.00,,,0.00,Wunderground v.1.15,2013-09-19 00:40:00,
2013-09-18 20:50:00,54.9,48.5,30.09,South,172,4.0,5.0,79,0.00,,,0.00,Wunderground v.1.15,2013-09-19 00:50:00,
2013-09-18 21:00:00,54.7,48.6,30.10,South,169,4.0,4.0,80,0.00,,,0.00,Wunderground v.1.15,2013-09-19 01:00:00,
2013-09-18 21:10:00,54.5,48.5,30.10,SSE,154,4.0,4.0,80,0.00,,,0.00,Wunderground v.1.15,2013-09-19 01:10:00,
2013-09-18 21:20:00,54.2,48.5,30.10,SSE,147,5.0,5.0,81,0.00,,,0.00,Wunderground v.1.15,2013-09-19 01:20:00,
2013-09-18 21:30:00,54.0,48.3,30.09,South,179,5.0,5.0,81,0.00,,,0.00,Wunderground v.1.15,2013-09-19 01:30:00,
2013-09-18 21:40:00,53.8,48.4,30.09,SSE,165,4.0,4.0,82,0.00,,,0.00,Wunderground v.1.15,2013-09-19 01:40:00,
2013-09-18 21:50:00,53.5,48.5,30.10,SSE,149,5.0,5.0,83,0.00,,,0.00,Wunderground v.1.15,2013-09-19 01:50:00,
2013-09-18 22:00:00,53.2,48.5,30.10,South,180,4.0,4.0,84,0.00,,,0.00,Wunderground v.1.15,2013-09-19 02:00:00,
2013-09-18 22:10:00,53.0,48.3,30.10,South,191,4.0,4.0,84,0.00,,,0.00,Wunderground v.1.15,2013-09-19 02:10:00,
2013-09-18 22:20:00,53.1,48.7,30.10,South,181,5.0,6.0,85,0.00,,,0.00,Wunderground v.1.15,2013-09-19 02:20:00,
2013-09-18 22:30:00,53.3,48.9,30.10,SSW,202,5.0,6.0,85,0.00,,,0.00,Wunderground v.1.15,2013-09-19 02:30:00,
2013-09-18 22:40:00,53.6,49.2,30.10,South,189,6.0,9.0,85,0.00,,,0.00,Wunderground v.1.15,2013-09-19 02:40:00,
2013-09-18 22:50:00,53.6,49.2,30.09,SSE,151,5.0,5.0,85,0.00,,,0.00,Wunderground v.1.15,2013-09-19 02:50:00,
2013-09-18 23:00:00,53.8,49.7,30.09,South,190,6.0,11.0,86,0.00,,,0.00,Wunderground v.1.15,2013-09-19 03:00:00,
2013-09-18 23:10:00,54.6,50.8,30.09,South,180,8.0,8.0,87,0.00,,,0.00,Wunderground v.1.15,2013-09-19 03:10:00,
2013-09-18 23:20:00,55.5,51.4,30.09,South,187,7.0,7.0,86,0.00,,,0.00,Wunderground v.1.15,2013-09-19 03:20:00,
2013-09-18 23:30:00,55.9,51.5,30.09,SSW,193,7.0,7.0,85,0.00,,,0.00,Wunderground v.1.15,2013-09-19 03:30:00,
2013-09-18 23:40:00,55.7,50.9,30.09,South,189,7.0,7.0,84,0.00,,,0.00,Wunderground v.1.15,2013-09-19 03:40:00,
2013-09-18 23:50:00,55.7,51.3,30.09,South,182,7.0,7.0,85,0.00,,,0.00,Wunderground v.1.15,2013-09-19 03:50:00,